Weather History for Boonville, MO

Change the Weather History Date:

Wednesday, March 6, 2013

  Actual Average Record
Temperature  
Mean Temperature 28 °F -  
Max Temperature 33 °F 47 °F 82 °F (1956)
Min Temperature 23 °F 28 °F -7 °F (1960)
Degree Days  
Heating Degree Days 37    
Moisture  
Dew Point 20 °F    
Average Humidity 67    
Maximum Humidity 83    
Minimum Humidity 56    
Precipitation  
Precipitation 0.00 in - - ()
Sea Level Pressure  
Sea Level Pressure 30.35 in    
Wind  
Wind Speed 9 mph (NW)    
Max Wind Speed 17 mph    
Max Gust Speed 21 mph    
Visibility 10 miles    
Events      
Averages and records for this station are not official NWS values.
T = Trace of Precipitation, MM = Missing Value Source: NWS Daily Summary

Daily Weather History Graph

Daily Weather History Graph

Search for Another Location

Airport:

Trip Planner

Search our weather history database for the weather conditions in past years. The results will help you decide how hot, cold, wet, or windy it might be!

Date:

Astronomy

Mar. 06, 2013 Rise Set
Actual Time 6:35 AM CST 6:08 PM CST
Civil Twilight 6:08 AM CST 6:35 PM CST
Nautical Twilight 5:37 AM CST 7:06 PM CST
Astronomical Twilight 5:06 AM CST 7:37 PM CST
Moon 2:42 AM CST (3/6) 12:53 PM CST (3/6)
Length of Visible Light 12h 26m
Length of Day
11h 33m
Waning Crescent, 29% of the Moon is Illuminated
Mar 6
Waning Crescent
Mar 11
New
Mar 19
First Quarter
Mar 27
Full
Apr 2
Last Quarter

Hourly Weather History & Observations

Time (CST) Temp. Windchill Dew Point Humidity Pressure Visibility Wind Dir Wind Speed Gust Speed Precip Events Conditions
12:15 AM 31.1 °F 22.4 °F 20.7 °F 65% 30.26 in 10.0 mi WNW 10.4 mph 19.6 mph N/A   Overcast
12:35 AM 30.9 °F 21.2 °F 20.3 °F 65% 30.27 in 10.0 mi NW 12.7 mph 20.7 mph N/A   Overcast
12:55 AM 30.9 °F 21.2 °F 20.3 °F 65% 30.28 in 10.0 mi NW 12.7 mph 18.4 mph N/A   Overcast
1:15 AM 30.7 °F 20.9 °F 20.3 °F 65% 30.29 in 10.0 mi NW 12.7 mph - N/A   Overcast
1:35 AM 30.6 °F 21.2 °F 20.3 °F 66% 30.29 in 10.0 mi NW 11.5 mph 18.4 mph N/A   Overcast
1:55 AM 30.4 °F 20.0 °F 20.5 °F 67% 30.30 in 10.0 mi NW 13.8 mph 20.7 mph N/A   Overcast
2:15 AM 30.0 °F 18.3 °F 21.0 °F 69% 30.29 in 10.0 mi NW 17.3 mph 20.7 mph N/A   Overcast
2:35 AM 29.8 °F 21.5 °F 21.0 °F 70% 30.30 in 10.0 mi NW 9.2 mph 17.3 mph N/A   Overcast
2:55 AM 29.7 °F 19.6 °F 21.0 °F 70% 30.30 in 10.0 mi NW 12.7 mph 16.1 mph N/A   Overcast
3:15 AM 29.5 °F 19.3 °F 20.8 °F 70% 30.30 in 10.0 mi NW 12.7 mph 17.3 mph N/A   Overcast
3:35 AM 29.5 °F 19.9 °F 20.5 °F 69% 30.31 in 10.0 mi NW 11.5 mph 16.1 mph N/A   Overcast
3:55 AM 29.3 °F 20.8 °F 20.5 °F 70% 30.32 in 10.0 mi NW 9.2 mph 17.3 mph N/A   Overcast
4:15 AM 29.3 °F 20.2 °F 20.1 °F 69% 30.33 in 10.0 mi NW 10.4 mph 16.1 mph N/A   Overcast
4:55 AM 29.1 °F 21.3 °F 19.9 °F 69% 30.34 in 10.0 mi NW 8.1 mph - N/A   Overcast
5:15 AM 29.1 °F 20.0 °F 19.9 °F 69% 30.35 in 10.0 mi NW 10.4 mph 17.3 mph N/A   Overcast
5:35 AM 28.9 °F 19.8 °F 19.9 °F 69% 30.36 in 10.0 mi NW 10.4 mph - N/A   Overcast
5:55 AM 28.6 °F 18.7 °F 20.1 °F 71% 30.36 in 10.0 mi NW 11.5 mph 16.1 mph N/A   Overcast
6:15 AM 28.4 °F 19.1 °F 20.3 °F 72% 30.36 in 10.0 mi NW 10.4 mph - N/A   Overcast
6:35 AM 28.2 °F 18.9 °F 20.3 °F 72% 30.38 in 10.0 mi NW 10.4 mph - N/A   Overcast
6:55 AM 28.2 °F 18.3 °F 20.1 °F 72% 30.38 in 10.0 mi NW 11.5 mph 16.1 mph N/A   Overcast
7:15 AM 28.2 °F 18.3 °F 20.1 °F 72% 30.38 in 10.0 mi NW 11.5 mph - N/A   Overcast
7:35 AM 28.4 °F 19.7 °F 19.9 °F 71% 30.38 in 10.0 mi NNW 9.2 mph - N/A   Overcast
7:55 AM 28.4 °F 19.7 °F 19.9 °F 71% 30.38 in 10.0 mi NNW 9.2 mph - N/A   Overcast
8:15 AM 28.6 °F 18.7 °F 19.6 °F 69% 30.39 in 10.0 mi NNW 11.5 mph - N/A   Overcast
8:35 AM 29.1 °F 20.6 °F 19.8 °F 68% 30.40 in 10.0 mi NNW 9.2 mph - N/A   Overcast
8:55 AM 29.1 °F 20.0 °F 19.4 °F 67% 30.41 in 10.0 mi NW 10.4 mph - N/A   Overcast
9:15 AM 29.3 °F 20.8 °F 19.4 °F 67% 30.41 in 10.0 mi NNW 9.2 mph - N/A   Overcast
9:35 AM 29.3 °F 20.2 °F 18.9 °F 65% 30.41 in 10.0 mi NNW 10.4 mph - N/A   Overcast
9:55 AM 29.5 °F 20.4 °F 18.5 °F 64% 30.41 in 10.0 mi NW 10.4 mph - N/A   Overcast
10:15 AM 29.8 °F 22.2 °F 18.5 °F 63% 30.41 in 10.0 mi NW 8.1 mph - N/A   Overcast
10:35 AM 30.4 °F 21.5 °F 18.9 °F 62% 30.41 in 10.0 mi NNW 10.4 mph - N/A   Overcast
10:55 AM 30.9 °F 23.5 °F 18.7 °F 61% 30.41 in 10.0 mi NW 8.1 mph - N/A   Overcast
11:15 AM 31.1 °F 26.4 °F 19.0 °F 61% 30.41 in 10.0 mi NW 4.6 mph - N/A   Overcast
11:35 AM 31.5 °F 25.8 °F 19.0 °F 60% 30.41 in 10.0 mi NNW 5.8 mph - N/A   Overcast
11:55 AM 31.8 °F 24.6 °F 18.7 °F 58% 30.41 in 10.0 mi NW 8.1 mph - N/A   Overcast
12:15 PM 32.0 °F 27.5 °F 18.7 °F 58% 30.40 in 10.0 mi North 4.6 mph - N/A   Overcast
12:35 PM 32.0 °F 28.7 °F 18.9 °F 58% 30.39 in 10.0 mi NW 3.5 mph - N/A   Overcast
12:55 PM 32.4 °F 26.9 °F 18.9 °F 58% 30.39 in 10.0 mi NW 5.8 mph - N/A   Mostly Cloudy
1:15 PM 32.2 °F 28.9 °F 19.6 °F 60% 30.39 in 10.0 mi NW 3.5 mph - N/A   Mostly Cloudy
1:35 PM 32.4 °F - 19.4 °F 59% 30.39 in 10.0 mi Calm Calm - N/A   Mostly Cloudy
1:55 PM 33.1 °F 28.7 °F 19.2 °F 57% 30.38 in 10.0 mi West 4.6 mph - N/A   Mostly Cloudy
2:15 PM 33.1 °F 27.7 °F 19.2 °F 57% 30.38 in 10.0 mi WNW 5.8 mph - N/A   Scattered Clouds
2:35 PM 33.4 °F 29.1 °F 19.8 °F 57% 30.38 in 10.0 mi NNW 4.6 mph - N/A   Scattered Clouds
3:15 PM 33.4 °F 27.3 °F 19.4 °F 56% 30.37 in 10.0 mi NNW 6.9 mph - N/A   Clear
3:35 PM 33.4 °F 27.3 °F 19.6 °F 57% 30.37 in 10.0 mi NW 6.9 mph - N/A   Clear
3:55 PM 33.3 °F 28.9 °F 19.9 °F 58% 30.37 in 10.0 mi NNW 4.6 mph - N/A   Clear
4:15 PM 33.3 °F 28.9 °F 19.8 °F 58% 30.36 in 10.0 mi NW 4.6 mph - N/A   Clear
4:35 PM 33.1 °F 30.0 °F 19.8 °F 58% 30.35 in 10.0 mi West 3.5 mph - N/A   Clear
4:55 PM 32.9 °F - 19.6 °F 58% 30.35 in 10.0 mi Calm Calm - N/A   Clear
5:15 PM 32.7 °F 28.3 °F 19.6 °F 58% 30.35 in 10.0 mi WNW 4.6 mph - N/A   Clear
5:35 PM 32.2 °F 26.7 °F 19.6 °F 60% 30.35 in 10.0 mi WNW 5.8 mph - N/A   Clear
5:55 PM 32.0 °F 28.7 °F 19.6 °F 60% 30.34 in 10.0 mi NW 3.5 mph - N/A   Clear
6:15 PM 31.3 °F - 19.8 °F 62% 30.35 in 10.0 mi Calm Calm - N/A   Clear
6:35 PM 30.7 °F - 19.8 °F 64% 30.33 in 10.0 mi Calm Calm - N/A   Clear
6:55 PM 30.0 °F - 19.9 °F 66% 30.33 in 10.0 mi Calm Calm - N/A   Clear
7:15 PM 29.5 °F - 19.9 °F 68% 30.33 in 10.0 mi Calm Calm - N/A   Clear
7:35 PM 28.2 °F - 20.1 °F 72% 30.33 in 10.0 mi Calm Calm - N/A   Clear
7:55 PM 27.7 °F - 20.3 °F 74% 30.33 in 10.0 mi Calm Calm - N/A   Clear
8:15 PM 27.7 °F - 20.1 °F 73% 30.33 in 10.0 mi Calm Calm - N/A   Clear
8:35 PM 26.8 °F 22.8 °F 20.1 °F 76% 30.33 in 10.0 mi North 3.5 mph - N/A   Clear
8:55 PM 27.3 °F - 20.3 °F 75% 30.34 in 10.0 mi Calm Calm - N/A   Clear
9:15 PM 27.5 °F - 20.3 °F 74% 30.33 in 10.0 mi Calm Calm - N/A   Clear
9:35 PM 27.0 °F - 19.8 °F 74% 30.34 in 10.0 mi Calm Calm - N/A   Clear
9:55 PM 25.7 °F - 19.6 °F 78% 30.34 in 10.0 mi Calm Calm - N/A   Clear
10:15 PM 25.2 °F - 19.6 °F 79% 30.33 in 10.0 mi Calm Calm - N/A   Clear
10:35 PM 25.2 °F - 19.6 °F 79% 30.33 in 10.0 mi Calm Calm - N/A   Clear
10:55 PM 24.4 °F - 19.4 °F 81% 30.33 in 10.0 mi Calm Calm - N/A   Clear
11:15 PM 23.9 °F - 19.4 °F 83% 30.33 in 10.0 mi Calm Calm - N/A   Clear
11:35 PM 24.1 °F 18.2 °F 19.2 °F 82% 30.32 in 10.0 mi ENE 4.6 mph - N/A   Clear
11:55 PM 25.0 °F 20.7 °F 19.8 °F 81% 30.32 in 10.0 mi ENE 3.5 mph - N/A   Clear